Time;durP1;ratioP1;P1;durP2;ratioP2;P2;SDS_P1;SDS_P2;PMS_P1;PMS_P2;Temp;Humidity;BMP_temperature;BMP_pressure;BME280_temperature;BME280_humidity;BME280_pressure;Samples;Min_cycle;Max_cycle;Signal;HPM_P1;HPM_P2
2022/01/25 00:24:44;;;;;;;15.68;5.68;;;;;;;-15.98;91.24;96321.38;5064026;28;20048;-49
2022/01/25 00:32:14;;;;;;;2.72;1.70;;;;;;;-16.06;90.30;96323.22;5064694;28;20109;-47
2022/01/25 00:34:41;;;;;;;3.83;3.15;;;;;;;-16.14;90.06;96315.06;5070857;28;20048;-48
2022/01/25 00:37:08;;;;;;;4.55;3.38;;;;;;;-16.31;89.95;96317.09;5070871;28;20044;-46
2022/01/25 00:39:38;;;;;;;6.35;4.65;;;;;;;-16.44;89.15;96317.34;5066641;28;20402;-47
2022/01/25 00:42:06;;;;;;;9.88;6.03;;;;;;;-16.58;89.23;96314.28;5070381;28;20519;-47
2022/01/25 00:44:39;;;;;;;4.88;2.85;;;;;;;-16.58;89.14;96324.25;5068897;28;20800;-47
2022/01/25 00:47:07;;;;;;;5.47;2.70;;;;;;;-16.65;89.04;96326.09;5065163;28;20875;-48
2022/01/25 00:49:38;;;;;;;11.10;4.72;;;;;;;-16.73;89.23;96324.56;5062539;28;20632;-49
2022/01/25 00:54:47;;;;;;;5.20;3.45;;;;;;;-16.85;88.99;96324.00;5064948;28;20045;-47
2022/01/25 00:57:15;;;;;;;5.40;3.45;;;;;;;-16.87;89.47;96324.84;5065850;28;20049;-48
2022/01/25 00:59:42;;;;;;;4.00;3.67;;;;;;;-16.85;89.85;96326.50;5066225;28;20055;-47
2022/01/25 01:02:13;;;;;;;5.77;4.83;;;;;;;-16.86;89.90;96324.84;5070194;28;20044;-47
2022/01/25 01:04:43;;;;;;;5.68;3.97;;;;;;;-16.84;90.20;96325.63;5065845;28;20131;-50
2022/01/25 01:07:13;;;;;;;3.20;2.65;;;;;;;-16.85;90.02;96326.50;5064673;28;20090;-48
2022/01/25 01:09:44;;;;;;;3.83;2.90;;;;;;;-16.87;90.61;96318.19;5064757;28;20048;-48
2022/01/25 01:12:20;;;;;;;4.65;3.65;;;;;;;-16.84;90.47;96318.13;5070104;28;20036;-48
2022/01/25 01:31:29;;;;;;;6.72;2.88;;;;;;;-17.18;89.96;96308.78;5059067;28;20044;-48
2022/01/25 01:37:10;;;;;;;4.38;4.00;;;;;;;-17.17;89.46;96307.94;5063498;28;20048;-47
2022/01/25 01:47:44;;;;;;;3.15;2.88;;;;;;;-17.44;89.47;96295.97;5061652;28;20075;-46
2022/01/25 01:50:16;;;;;;;2.58;1.67;;;;;;;-17.38;89.64;96285.91;5068002;28;20041;-50
2022/01/25 01:52:43;;;;;;;1.57;1.50;;;;;;;-17.38;89.80;96290.88;5068661;28;20054;-48
2022/01/25 01:55:12;;;;;;;12.95;4.47;;;;;;;-17.52;89.73;96279.50;5063215;28;20051;-47
2022/01/25 01:57:41;;;;;;;2.00;1.85;;;;;;;-17.49;89.86;96287.75;5063662;28;20062;-46
2022/01/25 02:00:08;;;;;;;7.43;3.10;;;;;;;-17.54;90.09;96291.13;5066969;28;20044;-47
2022/01/25 02:02:38;;;;;;;1.55;1.45;;;;;;;-17.60;90.11;96281.28;5065213;28;20054;-47
2022/01/25 02:05:06;;;;;;;15.80;4.77;;;;;;;-17.51;90.58;96285.28;5064345;28;20048;-47
2022/01/25 02:07:33;;;;;;;2.93;2.20;;;;;;;-17.43;90.68;96282.66;5066134;28;20044;-47
2022/01/25 02:10:00;;;;;;;4.40;1.97;;;;;;;-17.43;90.48;96277.66;5068496;28;20468;-46
2022/01/25 02:12:27;;;;;;;6.15;3.00;;;;;;;-17.43;90.21;96277.66;5063707;28;20067;-47
2022/01/25 02:14:55;;;;;;;5.70;2.97;;;;;;;-17.53;89.92;96277.81;5069223;28;20422;-48
2022/01/25 02:22:59;;;;;;;1.13;1.08;;;;;;;-17.52;90.98;96273.66;5065182;28;21664;-49
2022/01/25 02:25:27;;;;;;;5.37;2.40;;;;;;;-17.56;90.60;96257.94;5062906;28;20045;-48
2022/01/25 02:27:53;;;;;;;3.45;2.95;;;;;;;-17.50;90.72;96271.16;5066251;28;20048;-48
2022/01/25 02:30:21;;;;;;;2.05;1.90;;;;;;;-17.44;90.87;96266.09;5067958;28;20045;-48
2022/01/25 02:32:48;;;;;;;3.85;2.70;;;;;;;-17.42;91.10;96265.19;5063228;28;20044;-47
2022/01/25 02:35:15;;;;;;;2.80;2.15;;;;;;;-17.35;90.93;96265.94;5063387;28;20644;-48
2022/01/25 02:37:42;;;;;;;6.35;3.95;;;;;;;-17.30;91.01;96264.19;5066402;28;20060;-48
2022/01/25 02:40:09;;;;;;;6.28;3.00;;;;;;;-17.31;90.44;96257.53;5068224;28;20055;-48
2022/01/25 02:42:36;;;;;;;2.75;2.50;;;;;;;-17.29;91.14;96260.81;5063414;28;20520;-47
2022/01/25 02:45:04;;;;;;;4.97;2.92;;;;;;;-17.27;91.55;96254.13;5066386;28;20138;-46
2022/01/25 02:50:16;;;;;;;13.15;4.05;;;;;;;-17.14;90.94;96260.56;5071028;28;20097;-48
2022/01/25 02:52:43;;;;;;;4.82;3.95;;;;;;;-17.12;90.53;96258.03;5062997;28;20474;-47
2022/01/25 02:55:10;;;;;;;6.78;3.95;;;;;;;-17.21;89.13;96254.03;5060918;28;20052;-47
2022/01/25 02:57:37;;;;;;;4.07;2.85;;;;;;;-17.32;89.42;96248.41;5062793;28;20052;-50
2022/01/25 03:00:08;;;;;;;18.17;4.25;;;;;;;-17.28;90.19;96252.50;5064609;28;20052;-46
2022/01/25 03:02:35;;;;;;;3.43;3.13;;;;;;;-17.24;90.41;96254.09;5063766;28;20037;-48
2022/01/25 03:05:04;;;;;;;4.77;3.33;;;;;;;-17.19;90.80;96247.34;5063463;28;20143;-47
2022/01/25 03:07:31;;;;;;;6.23;1.50;;;;;;;-17.11;91.05;96243.91;5067263;28;20120;-47
2022/01/25 03:09:59;;;;;;;6.13;3.15;;;;;;;-17.04;91.42;96250.41;5064422;28;20518;-46
2022/01/25 03:17:46;;;;;;;2.95;2.33;;;;;;;-16.91;91.40;96246.81;5069197;28;20662;-46
2022/01/25 03:20:47;;;;;;;4.07;2.05;;;;;;;-16.92;91.59;96235.22;5066611;28;20056;-47
2022/01/25 03:23:05;;;;;;;9.00;3.95;;;;;;;-16.89;91.47;96237.63;5062486;28;20143;-48
2022/01/25 03:25:33;;;;;;;9.57;5.55;;;;;;;-16.95;91.00;96240.25;5062378;28;20127;-48
2022/01/25 03:27:59;;;;;;;5.72;4.00;;;;;;;-17.02;90.40;96242.03;5068120;28;20044;-47
2022/01/25 03:30:26;;;;;;;3.77;3.47;;;;;;;-17.08;89.89;96238.88;5069874;28;20506;-49
2022/01/25 03:32:53;;;;;;;3.95;2.97;;;;;;;-17.20;89.61;96239.91;5061867;28;20041;-47
2022/01/25 03:35:20;;;;;;;20.30;4.17;;;;;;;-17.24;90.23;96233.34;5064005;28;20916;-50
2022/01/25 03:37:47;;;;;;;9.13;3.10;;;;;;;-17.22;90.35;96222.50;5067803;28;20545;-47
2022/01/25 03:40:14;;;;;;;4.43;2.95;;;;;;;-17.37;89.73;96202.88;5063291;28;20094;-47
2022/01/25 03:42:41;;;;;;;2.45;2.25;;;;;;;-17.30;90.24;96223.47;5062303;28;20148;-47
2022/01/25 03:45:17;;;;;;;2.42;2.20;;;;;;;-17.24;90.07;96219.22;5062088;28;20046;-48
2022/01/25 03:47:57;;;;;;;3.42;1.58;;;;;;;-17.27;89.88;96224.25;5062206;28;20046;-48
2022/01/25 03:50:26;;;;;;;1.33;1.23;;;;;;;-17.34;89.83;96218.56;5075646;28;20040;-50
2022/01/25 03:52:53;;;;;;;4.25;3.05;;;;;;;-17.29;90.66;96211.00;5062903;28;20055;-46
2022/01/25 03:55:20;;;;;;;1.27;1.20;;;;;;;-17.15;90.99;96214.06;5059821;28;20048;-47
2022/01/25 03:57:47;;;;;;;5.07;3.08;;;;;;;-17.11;90.89;96204.03;5061936;28;20123;-47
2022/01/25 04:00:15;;;;;;;5.60;4.32;;;;;;;-17.07;90.79;96205.63;5062449;28;20043;-46
2022/01/25 04:02:50;;;;;;;3.20;2.70;;;;;;;-17.04;90.65;96200.56;5065589;28;20040;-50
2022/01/25 04:05:24;;;;;;;4.00;3.25;;;;;;;-17.10;90.25;96205.66;5060288;28;20036;-46
2022/01/25 04:07:52;;;;;;;8.90;3.08;;;;;;;-17.15;90.03;96204.09;5063289;28;20769;-49
2022/01/25 04:10:24;;;;;;;2.47;1.35;;;;;;;-17.14;89.88;96215.72;5065326;28;20098;-47
2022/01/25 04:12:51;;;;;;;7.38;3.08;;;;;;;-17.13;89.67;96222.31;5062369;28;20048;-49
2022/01/25 04:15:18;;;;;;;3.90;2.92;;;;;;;-17.20;89.04;96230.75;5062421;28;20512;-47
2022/01/25 04:17:50;;;;;;;2.85;1.95;;;;;;;-17.33;88.05;96222.69;5061484;28;20036;-46
2022/01/25 04:20:28;;;;;;;3.33;2.30;;;;;;;-17.43;87.31;96217.91;5064942;28;20048;-46
2022/01/25 04:25:40;;;;;;;1.52;1.45;;;;;;;-17.69;86.95;96205.94;5060552;28;20040;-46
2022/01/25 04:28:07;;;;;;;1.40;1.10;;;;;;;-17.72;87.55;96202.63;5060956;28;20048;-46
2022/01/25 04:30:34;;;;;;;0.93;0.88;;;;;;;-17.63;88.00;96200.84;5062318;28;20040;-50
2022/01/25 04:33:05;;;;;;;8.70;2.25;;;;;;;-17.65;87.85;96208.31;5062197;28;20041;-46
2022/01/25 04:54:31;;;;;;;4.13;2.95;;;;;;;-17.75;88.44;96196.88;5060465;28;20067;-52
2022/01/25 04:59:38;;;;;;;2.50;2.30;;;;;;;-17.64;88.96;96204.16;5060634;28;20068;-46
2022/01/25 05:02:15;;;;;;;1.95;1.77;;;;;;;-17.67;89.08;96205.03;5061576;28;20052;-46
2022/01/25 05:04:50;;;;;;;1.27;0.80;;;;;;;-17.64;88.90;96205.00;5064644;28;20059;-46
2022/01/25 05:09:45;;;;;;;1.80;0.83;;;;;;;-17.71;88.77;96208.44;5070106;28;20502;-46
2022/01/25 05:12:13;;;;;;;4.53;2.50;;;;;;;-17.74;88.81;96204.31;5067830;28;20133;-47
2022/01/25 05:14:59;;;;;;;5.07;1.63;;;;;;;-17.76;88.62;96206.00;5065435;28;20053;-46
2022/01/25 05:17:46;;;;;;;8.37;2.53;;;;;;;-17.74;88.68;96203.50;5065463;28;20045;-46
2022/01/25 05:22:58;;;;;;;10.90;4.15;;;;;;;-17.78;88.45;96196.94;5065536;28;20048;-46
2022/01/25 05:25:25;;;;;;;7.90;2.20;;;;;;;-17.77;89.26;96198.56;5064997;28;20052;-46
2022/01/25 05:27:52;;;;;;;6.97;2.50;;;;;;;-17.72;89.36;96186.88;5064884;28;20040;-49
2022/01/25 05:30:19;;;;;;;5.50;3.07;;;;;;;-17.68;89.74;96166.06;5063177;28;20439;-48
2022/01/25 05:32:46;;;;;;;14.43;6.07;;;;;;;-17.59;90.51;96178.34;5062909;28;20073;-48
2022/01/25 05:35:13;;;;;;;5.03;2.97;;;;;;;-17.47;90.98;96181.47;5062903;28;20041;-47
2022/01/25 05:37:42;;;;;;;3.55;3.28;;;;;;;-17.37;91.19;96180.47;5065636;28;20135;-49
2022/01/25 05:40:15;;;;;;;13.47;4.23;;;;;;;-17.26;90.87;96171.09;5066109;28;20490;-46
2022/01/25 05:43:57;;;;;;;3.33;2.50;;;;;;;-17.17;90.78;96175.91;5061874;28;20051;-46
2022/01/25 05:45:55;;;;;;;5.80;3.20;;;;;;;-17.25;90.25;96187.66;5064030;28;20043;-47
2022/01/25 05:48:23;;;;;;;0.77;0.77;;;;;;;-17.42;89.30;96189.69;5064067;28;20054;-47
2022/01/25 05:50:51;;;;;;;12.13;3.40;;;;;;;-17.48;88.89;96194.75;5064035;28;20044;-47
2022/01/25 05:53:18;;;;;;;6.05;4.00;;;;;;;-17.48;88.88;96188.13;5064169;28;20516;-47
2022/01/25 05:55:45;;;;;;;2.95;2.47;;;;;;;-17.53;88.90;96188.19;5061767;28;20054;-46
2022/01/25 05:58:12;;;;;;;2.35;1.50;;;;;;;-17.47;89.66;96188.94;5062333;28;20052;-46
2022/01/25 06:00:40;;;;;;;4.80;2.37;;;;;;;-17.38;90.36;96207.00;5063694;28;20058;-46
2022/01/25 06:03:07;;;;;;;1.70;1.45;;;;;;;-17.26;91.39;96201.00;5059712;28;20051;-46
2022/01/25 06:05:35;;;;;;;2.22;2.08;;;;;;;-17.04;92.00;96195.59;5053500;28;20106;-46
2022/01/25 06:08:03;;;;;;;8.52;4.47;;;;;;;-16.88;92.65;96196.13;5061561;28;20050;-48
2022/01/25 06:10:31;;;;;;;5.75;2.63;;;;;;;-16.72;93.21;96191.56;5064389;28;20111;-49
2022/01/25 06:12:58;;;;;;;8.18;3.03;;;;;;;-16.61;93.03;96189.69;5063319;28;20043;-51
2022/01/25 06:15:25;;;;;;;9.07;6.30;;;;;;;-16.57;91.85;96191.25;5062873;28;20048;-47
2022/01/25 06:17:52;;;;;;;10.27;6.55;;;;;;;-16.56;91.05;96197.91;5064771;28;20494;-49
2022/01/25 06:20:19;;;;;;;10.82;5.97;;;;;;;-16.45;90.43;96203.47;5062097;28;20040;-47
2022/01/25 06:22:46;;;;;;;40.25;10.27;;;;;;;-16.43;89.50;96189.28;5062592;28;20028;-46
2022/01/25 06:25:13;;;;;;;9.77;7.22;;;;;;;-16.36;89.15;96190.78;5067482;28;20067;-50
2022/01/25 06:27:42;;;;;;;18.08;9.00;;;;;;;-16.28;88.91;96187.28;5068422;28;20119;-47
2022/01/25 06:30:13;;;;;;;10.27;6.57;;;;;;;-16.21;88.59;96198.78;5068067;28;20040;-47
2022/01/25 06:32:40;;;;;;;9.02;5.03;;;;;;;-16.12;88.56;96188.59;5063729;28;20040;-47
2022/01/25 06:35:08;;;;;;;5.82;4.47;;;;;;;-16.00;88.35;96188.28;5070214;28;20087;-47
2022/01/25 06:37:35;;;;;;;4.63;3.70;;;;;;;-15.89;88.61;96195.53;5066836;28;20047;-47
2022/01/25 06:40:05;;;;;;;17.05;3.95;;;;;;;-15.84;88.47;96193.75;5064745;28;20072;-48
2022/01/25 06:42:32;;;;;;;9.75;4.20;;;;;;;-15.74;88.37;96189.34;5063790;28;20123;-48
2022/01/25 06:45:02;;;;;;;5.60;3.95;;;;;;;-15.63;88.12;96194.03;5064700;28;20090;-49
2022/01/25 06:47:29;;;;;;;5.43;3.67;;;;;;;-15.52;88.01;96188.75;5064276;28;20407;-47
2022/01/25 06:49:57;;;;;;;5.03;3.00;;;;;;;-15.40;87.81;96183.44;5062826;28;20040;-48
2022/01/25 06:52:24;;;;;;;10.93;5.20;;;;;;;-15.34;87.42;96177.47;5062767;28;20048;-47
2022/01/25 06:54:51;;;;;;;9.75;5.40;;;;;;;-15.29;87.34;96178.97;5060539;28;20059;-47
2022/01/25 06:57:18;;;;;;;8.27;3.70;;;;;;;-15.26;87.06;96181.41;5064927;28;20042;-48
2022/01/25 06:59:45;;;;;;;19.60;7.40;;;;;;;-15.24;87.03;96177.19;5066572;28;20033;-48
2022/01/25 07:02:13;;;;;;;14.52;4.93;;;;;;;-15.17;86.39;96182.03;5065108;28;20040;-46
2022/01/25 07:04:40;;;;;;;9.90;4.75;;;;;;;-15.13;85.72;96176.09;5061704;28;20039;-47
2022/01/25 07:07:07;;;;;;;5.32;2.55;;;;;;;-15.17;84.38;96174.53;5062336;28;20779;-47
2022/01/25 07:09:35;;;;;;;3.45;2.47;;;;;;;-15.26;83.97;96173.91;5062487;28;20044;-47
2022/01/25 07:12:03;;;;;;;5.30;2.45;;;;;;;-15.14;84.82;96170.28;5061254;28;20040;-49
2022/01/25 07:14:32;;;;;;;7.90;4.20;;;;;;;-14.97;86.17;96177.28;5062264;28;20053;-46
2022/01/25 07:16:59;;;;;;;12.95;5.05;;;;;;;-14.72;87.46;96181.59;5061041;28;20047;-46
2022/01/25 07:19:26;;;;;;;3.03;2.75;;;;;;;-14.47;87.98;96177.47;5060852;28;20045;-48
2022/01/25 07:21:53;;;;;;;18.60;5.30;;;;;;;-14.12;88.36;96183.09;5062626;28;20036;-47
2022/01/25 07:24:20;;;;;;;10.68;3.15;;;;;;;-13.88;88.71;96175.66;5062873;28;20057;-48
2022/01/25 07:26:47;;;;;;;3.10;2.13;;;;;;;-13.63;88.22;96179.88;5062527;28;20040;-48
2022/01/25 07:29:14;;;;;;;12.02;4.13;;;;;;;-13.40;88.26;96172.41;5063663;28;20036;-48
2022/01/25 07:31:41;;;;;;;9.70;2.83;;;;;;;-13.12;87.82;96163.94;5066463;28;20409;-48
2022/01/25 07:34:09;;;;;;;4.03;2.78;;;;;;;-12.93;87.45;96167.41;5060567;28;20115;-47
2022/01/25 07:36:38;;;;;;;16.60;6.20;;;;;;;-12.71;86.81;96169.13;5058417;28;20041;-48
2022/01/25 07:39:12;;;;;;;6.53;2.72;;;;;;;-12.51;86.79;96163.41;5061686;28;20055;-49
2022/01/25 07:41:44;;;;;;;11.75;4.72;;;;;;;-12.32;85.85;96176.06;5055361;28;20122;-52
2022/01/25 07:44:15;;;;;;;5.55;3.10;;;;;;;-12.15;85.66;96171.22;5058153;28;20144;-49
2022/01/25 07:47:00;;;;;;;12.13;4.07;;;;;;;-11.91;85.93;96166.09;5062805;28;20053;-47
2022/01/25 07:49:31;;;;;;;7.80;2.92;;;;;;;-11.63;86.13;96164.94;5056887;28;21048;-49
2022/01/25 07:51:58;;;;;;;5.78;3.63;;;;;;;-11.43;86.06;96159.94;5055579;28;20046;-47
2022/01/25 07:54:27;;;;;;;7.47;3.50;;;;;;;-11.20;85.22;96155.59;5057399;28;20044;-48
2022/01/25 07:56:54;;;;;;;10.95;3.75;;;;;;;-11.00;84.77;96158.09;5057159;28;20506;-48
2022/01/25 07:59:21;;;;;;;7.22;3.83;;;;;;;-10.81;83.84;96152.25;5058638;28;20044;-47
2022/01/25 08:01:49;;;;;;;9.32;4.20;;;;;;;-10.72;83.24;96151.84;5065913;28;20490;-48
2022/01/25 08:04:21;;;;;;;5.65;3.92;;;;;;;-10.48;82.93;96154.13;5058767;28;22983;-46
2022/01/25 08:07:05;;;;;;;11.82;6.45;;;;;;;-10.41;83.04;96156.31;5056276;28;20043;-47
2022/01/25 08:09:47;;;;;;;15.20;6.15;;;;;;;-10.29;81.98;96154.91;5050897;28;20060;-46
2022/01/25 08:12:50;;;;;;;11.35;7.55;;;;;;;-10.07;81.22;96153.91;5067322;28;20075;-47
2022/01/25 08:15:31;;;;;;;14.38;7.85;;;;;;;-9.90;80.66;96151.41;5062108;28;20057;-47
2022/01/25 08:18:14;;;;;;;18.20;8.25;;;;;;;-9.91;79.55;96149.75;5066330;28;20044;-47
2022/01/25 08:20:58;;;;;;;12.48;5.88;;;;;;;-9.87;78.78;96151.25;5060762;28;20491;-49
2022/01/25 08:23:39;;;;;;;14.10;7.57;;;;;;;-9.58;81.39;96156.59;5040075;28;20056;-47
2022/01/25 08:26:35;;;;;;;12.02;5.47;;;;;;;-9.37;81.13;96146.34;5059350;28;20057;-49
2022/01/25 08:29:16;;;;;;;12.10;6.25;;;;;;;-9.17;81.17;96146.16;4998026;28;20053;-48
2022/01/25 08:31:45;;;;;;;9.45;5.82;;;;;;;-9.02;79.72;96148.78;4998227;28;20157;-49
2022/01/25 08:34:26;;;;;;;11.05;6.25;;;;;;;-9.15;78.61;96141.84;4995406;28;20535;-47
2022/01/25 08:37:08;;;;;;;12.48;6.03;;;;;;;-9.07;79.33;96142.28;4981507;28;20061;-47
2022/01/25 08:39:40;;;;;;;14.02;5.30;;;;;;;-9.18;79.85;96144.53;4998781;28;20060;-47
2022/01/25 08:42:16;;;;;;;9.73;6.55;;;;;;;-8.99;80.63;96139.34;5000169;28;20941;-47
2022/01/25 08:44:52;;;;;;;10.70;5.82;;;;;;;-8.70;80.11;96139.53;5001889;28;20551;-48
2022/01/25 08:47:27;;;;;;;13.30;7.03;;;;;;;-8.47;79.30;96140.84;4964999;28;20544;-48
2022/01/25 08:50:15;;;;;;;18.02;6.43;;;;;;;-8.53;78.53;96131.09;4986571;28;20283;-47
2022/01/25 08:53:07;;;;;;;12.75;6.43;;;;;;;-8.41;78.09;96135.44;4999721;28;20045;-50
2022/01/25 08:55:48;;;;;;;19.20;6.45;;;;;;;-8.40;77.58;96129.50;5059158;28;20091;-49
2022/01/25 08:58:29;;;;;;;17.58;6.90;;;;;;;-8.47;78.36;96134.09;5030989;28;21946;-47
2022/01/25 09:00:56;;;;;;;12.18;6.50;;;;;;;-8.48;77.87;96129.09;5026273;28;20065;-48
2022/01/25 09:03:24;;;;;;;11.20;6.07;;;;;;;-8.46;77.94;96124.81;5028416;28;20044;-47
2022/01/25 09:05:51;;;;;;;17.15;9.65;;;;;;;-8.34;79.43;96125.81;5023028;28;20048;-47
2022/01/25 09:08:22;;;;;;;15.55;8.88;;;;;;;-8.04;79.05;96123.34;5032650;28;20818;-49
2022/01/25 09:11:00;;;;;;;17.55;9.90;;;;;;;-7.61;78.38;96118.38;5032098;28;20054;-48
2022/01/25 09:13:27;;;;;;;14.98;9.88;;;;;;;-7.52;76.49;96117.84;5023908;28;20061;-47
2022/01/25 09:15:54;;;;;;;14.50;7.47;;;;;;;-7.57;76.24;96112.25;5025290;28;20052;-47
2022/01/25 09:18:21;;;;;;;21.27;9.10;;;;;;;-7.41;75.71;96106.31;5025774;28;20601;-48
2022/01/25 09:20:48;;;;;;;18.10;7.35;;;;;;;-7.42;76.45;96104.66;5029500;28;20063;-48
2022/01/25 09:23:18;;;;;;;19.58;8.57;;;;;;;-7.16;76.76;96111.56;5028980;28;20065;-47
2022/01/25 09:25:47;;;;;;;20.92;9.02;;;;;;;-7.03;75.26;96111.66;5025309;28;20447;-47
2022/01/25 09:28:15;;;;;;;16.80;9.50;;;;;;;-6.98;74.93;96091.13;5026819;28;20053;-47
2022/01/25 09:30:44;;;;;;;25.20;9.23;;;;;;;-6.90;74.29;96109.19;5031377;28;20594;-49
2022/01/25 09:33:11;;;;;;;21.17;7.60;;;;;;;-6.95;74.70;96098.50;5032688;28;20128;-47
2022/01/25 09:35:38;;;;;;;21.90;9.77;;;;;;;-6.94;75.48;96090.03;5039172;28;20091;-48
2022/01/25 09:38:05;;;;;;;18.85;6.75;;;;;;;-6.80;75.28;96092.53;5064640;28;21928;-49
2022/01/25 09:40:33;;;;;;;17.98;8.82;;;;;;;-6.76;74.28;96093.97;5065977;28;20060;-48
2022/01/25 09:43:01;;;;;;;12.55;7.68;;;;;;;-6.73;74.38;96093.78;5062816;28;20062;-48
2022/01/25 09:45:28;;;;;;;9.73;6.68;;;;;;;-6.56;74.65;96094.47;5070266;28;20071;-47
2022/01/25 09:47:55;;;;;;;21.42;11.80;;;;;;;-6.27;74.42;96094.38;5071885;28;20040;-47
2022/01/25 09:50:23;;;;;;;21.58;12.60;;;;;;;-6.12;74.06;96088.38;5072398;28;20064;-47
2022/01/25 09:52:50;;;;;;;22.75;12.45;;;;;;;-6.00;72.48;96086.75;5065282;28;20497;-48
2022/01/25 09:55:22;;;;;;;24.52;11.65;;;;;;;-5.89;72.42;96075.88;5061611;28;20105;-48
2022/01/25 09:57:50;;;;;;;26.92;12.88;;;;;;;-6.44;73.01;96068.38;5064050;28;20509;-47
2022/01/25 10:00:20;;;;;;;23.00;10.63;;;;;;;-6.08;73.45;96078.84;5066887;28;20044;-47
2022/01/25 10:03:02;;;;;;;20.98;10.80;;;;;;;-5.60;72.40;96068.91;5067726;28;20044;-48
2022/01/25 10:05:35;;;;;;;28.42;12.88;;;;;;;-5.08;72.93;96069.69;5065118;28;20656;-47
2022/01/25 10:08:10;;;;;;;27.15;15.23;;;;;;;-4.72;70.14;96065.56;5061125;28;20040;-48
2022/01/25 10:10:44;;;;;;;34.78;16.98;;;;;;;-4.83;69.85;96056.94;5058273;28;20418;-53
2022/01/25 10:13:23;;;;;;;21.30;10.07;;;;;;;-5.01;70.57;96056.47;5059238;28;20041;-49
2022/01/25 10:15:59;;;;;;;21.67;9.95;;;;;;;-5.28;70.57;96048.19;5063321;28;20045;-48
2022/01/25 10:18:42;;;;;;;11.32;5.75;;;;;;;-5.60;71.25;96051.97;5062989;28;20116;-48
2022/01/25 10:21:18;;;;;;;12.15;6.70;;;;;;;-5.90;72.48;96043.84;5078480;28;20461;-48
2022/01/25 10:24:03;;;;;;;14.05;6.75;;;;;;;-5.90;73.03;96046.38;5060953;28;20040;-50
2022/01/25 10:26:58;;;;;;;12.18;7.38;;;;;;;-5.79;75.06;96039.66;5056805;28;20609;-47
2022/01/25 10:29:30;;;;;;;4.53;3.28;;;;;;;-6.02;73.00;96032.78;5067217;28;20060;-49
2022/01/25 10:32:00;;;;;;;7.55;5.03;;;;;;;-6.08;74.68;96039.06;5064860;28;20452;-50
2022/01/25 10:34:44;;;;;;;7.78;4.72;;;;;;;-5.89;74.78;96028.47;5059483;28;20040;-47
2022/01/25 10:37:17;;;;;;;19.48;3.28;;;;;;;-6.03;73.56;96021.81;5060121;28;20048;-47
2022/01/25 10:39:52;;;;;;;10.00;4.25;;;;;;;-6.02;73.39;96015.00;5062465;28;20051;-47
2022/01/25 10:42:23;;;;;;;8.90;4.45;;;;;;;-5.78;74.60;95997.31;5065690;28;20053;-47
2022/01/25 10:44:53;;;;;;;9.57;5.43;;;;;;;-5.42;74.11;96011.00;5064843;28;20045;-47
2022/01/25 10:47:46;;;;;;;7.38;4.60;;;;;;;-5.13;72.32;96013.31;5064248;28;20402;-51
2022/01/25 10:50:26;;;;;;;8.13;5.78;;;;;;;-4.87;71.20;96007.25;5051902;28;20070;-47
2022/01/25 10:53:11;;;;;;;9.75;4.95;;;;;;;-4.68;69.62;96005.94;5066349;28;20049;-48
2022/01/25 10:55:47;;;;;;;10.20;5.60;;;;;;;-4.81;69.36;96001.75;5063019;28;20425;-47
2022/01/25 10:58:14;;;;;;;7.78;5.35;;;;;;;-5.04;69.55;95994.88;5069147;28;20429;-48
2022/01/25 11:00:47;;;;;;;12.18;7.15;;;;;;;-5.34;71.36;95985.94;5070863;28;20575;-47
2022/01/25 11:03:31;;;;;;;10.00;4.97;;;;;;;-5.26;72.40;95996.41;5067658;28;20052;-48
2022/01/25 11:06:19;;;;;;;10.77;5.32;;;;;;;-5.37;71.97;95991.22;5057390;28;20048;-47
2022/01/25 11:08:48;;;;;;;13.00;4.28;;;;;;;-5.25;71.30;95992.91;5071774;28;20053;-48
2022/01/25 11:11:27;;;;;;;13.57;6.95;;;;;;;-5.16;71.46;95980.50;5066053;28;20040;-47
2022/01/25 11:13:56;;;;;;;9.70;4.82;;;;;;;-5.26;70.70;95981.16;5058692;28;20128;-48
2022/01/25 11:16:23;;;;;;;8.50;5.93;;;;;;;-5.18;71.03;95973.81;5066362;28;20124;-48
2022/01/25 11:18:56;;;;;;;9.82;5.43;;;;;;;-5.28;71.43;95972.81;5057241;28;20133;-46
2022/01/25 11:21:23;;;;;;;11.38;6.65;;;;;;;-5.23;72.71;95965.69;5065979;28;20052;-47
2022/01/25 11:23:52;;;;;;;10.45;4.93;;;;;;;-5.24;71.91;95964.06;5062620;28;20062;-47
2022/01/25 11:26:20;;;;;;;8.13;5.03;;;;;;;-5.25;72.66;95959.91;5071736;28;20036;-47
2022/01/25 11:28:48;;;;;;;8.73;4.65;;;;;;;-5.10;70.38;95960.56;5068109;28;20062;-48
2022/01/25 11:31:20;;;;;;;33.33;6.45;;;;;;;-4.94;67.61;95945.06;5078890;28;20048;-47
2022/01/25 11:33:51;;;;;;;8.70;4.57;;;;;;;-4.77;69.30;95935.44;5067966;28;20046;-47
2022/01/25 11:36:19;;;;;;;10.27;4.88;;;;;;;-4.32;67.41;95940.66;5063267;28;20525;-47
2022/01/25 11:38:51;;;;;;;13.82;6.72;;;;;;;-4.07;67.26;95929.50;5058422;28;20063;-51
2022/01/25 11:41:20;;;;;;;6.68;2.42;;;;;;;-4.50;65.79;95933.47;5056736;28;20044;-47
2022/01/25 11:44:08;;;;;;;10.65;5.70;;;;;;;-4.30;68.06;95933.75;5061372;28;20044;-49
2022/01/25 11:46:40;;;;;;;4.72;4.03;;;;;;;-4.16;66.33;95931.03;5062563;28;20531;-47
2022/01/25 11:49:17;;;;;;;10.00;5.97;;;;;;;-4.28;67.80;95937.00;5062462;28;20512;-48
2022/01/25 11:51:46;;;;;;;11.05;5.63;;;;;;;-4.36;68.01;95926.56;5065165;28;20102;-48
2022/01/25 11:54:13;;;;;;;6.38;3.35;;;;;;;-4.53;67.37;95923.50;5073673;28;20052;-48
2022/01/25 11:56:41;;;;;;;9.10;3.90;;;;;;;-4.70;68.07;95916.28;5062528;28;20040;-47
2022/01/25 11:59:12;;;;;;;13.20;3.15;;;;;;;-4.62;68.13;95909.72;5061399;28;20057;-48
2022/01/25 12:01:39;;;;;;;6.55;4.43;;;;;;;-4.70;67.99;95911.19;5058437;28;20435;-47
2022/01/25 12:04:11;;;;;;;12.50;4.80;;;;;;;-4.78;67.89;95906.66;5059703;28;20126;-47
2022/01/25 12:06:43;;;;;;;6.07;3.22;;;;;;;-4.69;66.77;95912.81;5061852;28;20424;-47
2022/01/25 12:09:18;;;;;;;7.55;4.25;;;;;;;-4.44;67.58;95906.78;5059970;28;20044;-47
2022/01/25 12:12:07;;;;;;;4.97;3.60;;;;;;;-4.40;66.37;95918.34;5058569;28;21075;-48
2022/01/25 12:14:49;;;;;;;10.80;3.35;;;;;;;-4.38;65.45;95900.44;5064301;28;20048;-48
2022/01/25 12:17:17;;;;;;;13.07;6.13;;;;;;;-3.84;66.49;95897.25;5062105;28;20143;-47
2022/01/25 12:19:50;;;;;;;15.32;7.25;;;;;;;-3.35;63.72;95929.19;5063778;28;20061;-47
2022/01/25 12:25:15;;;;;;;7.68;5.13;;;;;;;-3.50;61.36;95876.88;5059935;28;20789;-48
2022/01/25 12:27:47;;;;;;;11.85;6.97;;;;;;;-3.67;63.16;95891.69;5061054;28;20422;-47
2022/01/25 12:30:14;;;;;;;14.35;6.00;;;;;;;-3.28;63.72;95881.94;5062139;28;20049;-47
2022/01/25 12:32:58;;;;;;;6.75;3.88;;;;;;;-3.42;62.66;95879.63;5065749;28;20101;-46
2022/01/25 12:35:31;;;;;;;8.95;6.18;;;;;;;-3.35;61.85;95880.78;5060574;28;20051;-48
2022/01/25 12:38:02;;;;;;;15.68;6.18;;;;;;;-3.05;61.29;95881.06;5060038;28;20040;-48
2022/01/25 12:40:32;;;;;;;11.40;6.03;;;;;;;-3.13;62.30;95874.00;5063816;28;20491;-46
2022/01/25 12:43:06;;;;;;;7.15;3.90;;;;;;;-3.34;62.73;95862.00;5062425;28;20037;-47
2022/01/25 12:45:44;;;;;;;14.98;7.97;;;;;;;-3.41;64.13;95860.88;5063727;28;20109;-47
2022/01/25 12:48:20;;;;;;;12.98;7.25;;;;;;;-3.17;63.13;95852.22;5065827;28;20522;-47
2022/01/25 12:50:53;;;;;;;16.75;6.53;;;;;;;-2.97;63.23;95859.13;5064967;28;20051;-47
2022/01/25 12:53:23;;;;;;;16.98;9.55;;;;;;;-2.65;61.32;95858.28;5061572;28;20037;-48
2022/01/25 12:55:53;;;;;;;15.45;5.45;;;;;;;-2.79;60.55;95861.13;5065583;28;20069;-48
2022/01/25 12:58:22;;;;;;;8.50;4.50;;;;;;;-3.03;60.92;95854.50;5065234;28;20462;-48
2022/01/25 13:00:51;;;;;;;7.97;4.80;;;;;;;-2.98;61.50;95847.28;5062938;28;20048;-48
2022/01/25 13:03:29;;;;;;;11.13;5.15;;;;;;;-3.20;61.40;95847.41;5061398;28;20032;-48
2022/01/25 13:06:03;;;;;;;10.88;6.43;;;;;;;-3.07;61.29;95858.22;5066172;28;20056;-47
2022/01/25 13:08:48;;;;;;;8.60;5.15;;;;;;;-2.93;61.66;95847.75;5069722;28;20049;-48
2022/01/25 13:11:20;;;;;;;13.60;6.90;;;;;;;-3.22;62.35;95846.69;5060364;28;20057;-47
2022/01/25 13:14:14;;;;;;;10.65;5.38;;;;;;;-2.97;62.16;95838.72;5063155;28;20053;-47
2022/01/25 13:16:46;;;;;;;6.70;3.97;;;;;;;-3.46;62.00;95832.38;5057962;28;20044;-46
2022/01/25 13:19:18;;;;;;;9.00;6.35;;;;;;;-3.50;62.93;95831.03;5063632;28;20043;-47
2022/01/25 13:22:00;;;;;;;9.48;5.20;;;;;;;-3.23;62.73;95822.16;5060757;28;20052;-47
2022/01/25 13:24:41;;;;;;;10.95;4.78;;;;;;;-3.03;62.07;95829.00;5061353;28;20039;-47
2022/01/25 13:27:12;;;;;;;7.40;5.00;;;;;;;-2.97;61.56;95828.53;5059345;28;20056;-49
2022/01/25 13:32:41;;;;;;;24.75;6.63;;;;;;;-2.85;60.60;95810.63;5065795;28;20060;-47